Time;durP1;ratioP1;P1;durP2;ratioP2;P2;SDS_P1;SDS_P2;PMS_P1;PMS_P2;Temp;Humidity;BMP_temperature;BMP_pressure;BME280_temperature;BME280_humidity;BME280_pressure;Samples;Min_cycle;Max_cycle;Signal;HPM_P1;HPM_P2
2022/03/31 00:00:18;;;;;;;;;48.25;39.50;;;;;11.64;57.29;99591.81;5016248;28;45628;-73
2022/03/31 00:02:44;;;;;;;;;41.25;34.25;;;;;11.68;56.69;99592.28;5014415;28;45583;-68
2022/03/31 00:05:11;;;;;;;;;32.75;29.75;;;;;11.51;57.20;99583.59;5016566;28;45361;-69
2022/03/31 00:07:57;;;;;;;;;46.00;39.00;;;;;11.49;57.25;99596.25;5016732;28;45466;-69
2022/03/31 00:10:30;;;;;;;;;48.50;40.00;;;;;11.41;56.82;99577.66;5016358;28;45613;-68
2022/03/31 00:12:57;;;;;;;;;44.75;35.75;;;;;11.54;56.31;99576.06;5008325;28;45547;-75
2022/03/31 00:15:26;;;;;;;;;51.00;39.75;;;;;11.57;56.45;99594.34;5003406;28;45275;-68
2022/03/31 00:17:52;;;;;;;;;51.00;39.00;;;;;11.19;56.56;99537.59;5007801;28;45338;-69
2022/03/31 00:20:17;;;;;;;;;48.25;38.25;;;;;11.22;56.36;99557.72;5014538;28;47001;-69
2022/03/31 00:22:43;;;;;;;;;42.25;34.50;;;;;11.21;56.43;99583.50;5015854;28;45275;-69
2022/03/31 00:25:11;;;;;;;;;46.25;36.75;;;;;11.22;56.18;99590.47;5015921;28;45414;-70
2022/03/31 00:27:39;;;;;;;;;45.75;34.75;;;;;11.05;56.88;99578.25;5016857;28;45221;-68
2022/03/31 00:30:08;;;;;;;;;45.75;36.50;;;;;11.14;56.45;99590.50;5016022;28;45191;-69
2022/03/31 00:32:34;;;;;;;;;43.25;37.00;;;;;11.04;57.16;99589.91;5014242;28;45435;-69
2022/03/31 00:35:00;;;;;;;;;46.25;36.75;;;;;10.95;56.38;99567.00;5012430;28;45467;-68
2022/03/31 00:37:27;;;;;;;;;42.75;35.75;;;;;11.11;57.03;99577.56;5014867;28;45634;-69
2022/03/31 00:39:53;;;;;;;;;38.50;33.25;;;;;11.09;56.42;99579.56;5018269;28;45911;-69
2022/03/31 00:42:24;;;;;;;;;45.50;36.00;;;;;11.14;56.29;99579.84;5019151;28;45309;-70
2022/03/31 00:44:50;;;;;;;;;44.00;36.75;;;;;11.08;56.67;99571.75;5019662;28;45317;-70
2022/03/31 00:47:17;;;;;;;;;44.25;36.00;;;;;11.14;56.00;99574.53;5019115;28;45335;-69
2022/03/31 00:49:43;;;;;;;;;33.00;31.00;;;;;10.98;55.85;99550.69;5019183;28;45244;-68
2022/03/31 00:52:14;;;;;;;;;40.75;35.50;;;;;10.76;55.90;99531.06;5019134;28;45215;-71
2022/03/31 00:54:41;;;;;;;;;43.25;35.75;;;;;10.96;56.60;99564.16;5012343;28;45316;-70
2022/03/31 00:57:11;;;;;;;;;46.00;35.75;;;;;11.04;55.61;99555.34;5017980;28;45367;-69
2022/03/31 00:59:37;;;;;;;;;43.00;36.75;;;;;10.75;55.71;99496.66;5018704;28;46450;-69
2022/03/31 01:02:03;;;;;;;;;18.67;15.00;;;;;11.06;55.26;99541.84;5017874;28;45445;-69
2022/03/31 01:04:29;;;;;;;;;38.67;34.00;;;;;10.52;56.02;99468.22;5019223;28;45252;-69
2022/03/31 01:06:55;;;;;;;;;44.33;35.33;;;;;11.00;56.01;99553.19;5019417;28;45848;-69
2022/03/31 01:09:21;;;;;;;;;39.00;34.50;;;;;11.03;56.16;99547.53;5018165;28;47245;-68
2022/03/31 01:11:46;;;;;;;;;39.50;31.75;;;;;11.14;56.03;99547.94;5018817;28;45250;-69
2022/03/31 01:14:12;;;;;;;;;36.33;32.67;;;;;11.26;55.36;99546.53;5018852;28;45487;-70
2022/03/31 01:16:37;;;;;;;;;36.50;31.50;;;;;11.22;55.28;99529.28;5019167;28;45611;-69
2022/03/31 01:19:08;;;;;;;;;40.33;34.33;;;;;11.20;55.58;99541.91;5017508;28;48319;-69
2022/03/31 01:21:42;;;;;;;;;38.50;31.25;;;;;10.91;56.08;99497.41;5014284;28;46299;-69
2022/03/31 01:24:14;;;;;;;;;37.00;29.00;;;;;10.79;56.28;99488.16;5011729;28;45399;-70
2022/03/31 01:26:41;;;;;;;;;45.25;36.00;;;;;11.18;55.63;99537.75;5017993;28;45599;-70
2022/03/31 01:29:08;;;;;;;;;45.50;36.50;;;;;11.19;55.64;99537.59;5001189;28;46642;-69
2022/03/31 01:31:33;;;;;;;;;37.33;33.67;;;;;10.78;55.63;99467.91;5018548;28;45551;-69
2022/03/31 01:33:59;;;;;;;;;41.50;35.25;;;;;11.20;55.63;99539.25;5018535;28;45533;-69
2022/03/31 01:36:26;;;;;;;;;41.75;35.25;;;;;11.00;56.10;99505.31;5018958;28;45561;-69
2022/03/31 01:38:52;;;;;;;;;41.50;33.50;;;;;10.96;56.37;99520.78;5018339;28;46000;-68
2022/03/31 01:41:17;;;;;;;;;41.25;34.00;;;;;11.03;56.32;99527.09;5017075;28;45743;-69
2022/03/31 01:43:42;;;;;;;;;40.25;34.50;;;;;10.86;56.28;99504.25;5018836;28;45171;-70
2022/03/31 01:46:10;;;;;;;;;43.67;35.00;;;;;10.83;56.55;99488.66;5000791;28;45567;-69
2022/03/31 01:48:38;;;;;;;;;41.25;34.75;;;;;11.07;56.33;99525.72;5018793;28;46558;-69
2022/03/31 01:51:04;;;;;;;;;47.00;36.50;;;;;11.01;56.57;99518.44;5017376;28;45428;-70
2022/03/31 01:53:31;;;;;;;;;45.25;34.00;;;;;10.94;56.73;99493.56;5018162;28;45346;-69
2022/03/31 01:55:56;;;;;;;;;43.00;36.25;;;;;11.16;56.40;99511.34;5018431;28;45402;-69
2022/03/31 01:58:22;;;;;;;;;44.75;36.25;;;;;10.94;57.24;99493.56;5017710;28;45587;-68
2022/03/31 02:00:47;;;;;;;;;45.75;37.50;;;;;10.93;57.00;99505.19;5018239;28;45495;-69
2022/03/31 02:03:13;;;;;;;;;51.50;38.75;;;;;10.91;57.64;99502.72;5014849;28;45468;-70
2022/03/31 02:05:38;;;;;;;;;44.00;37.00;;;;;10.42;57.20;99395.06;5017253;28;45430;-69
2022/03/31 02:08:04;;;;;;;;;45.75;36.75;;;;;10.98;57.23;99498.34;5018264;28;45582;-70
2022/03/31 02:10:29;;;;;;;;;46.50;38.00;;;;;10.67;57.27;99457.69;5018053;28;45178;-68
2022/03/31 02:12:55;;;;;;;;;48.00;38.50;;;;;10.87;57.64;99501.41;5018391;28;45268;-70
2022/03/31 02:15:21;;;;;;;;;50.25;38.25;;;;;10.73;58.00;99490.69;5017886;28;45160;-69
2022/03/31 02:17:48;;;;;;;;;51.00;40.25;;;;;10.84;58.28;99496.47;5018145;28;46478;-70
2022/03/31 02:20:13;;;;;;;;;47.75;39.25;;;;;10.88;58.01;99494.28;5018296;28;45449;-76
2022/03/31 02:22:39;;;;;;;;;48.75;40.25;;;;;10.66;58.20;99466.66;5017934;28;45543;-69
2022/03/31 02:25:08;;;;;;;;;50.75;41.00;;;;;10.83;58.75;99496.63;5017945;28;45539;-69
2022/03/31 02:27:35;;;;;;;;;54.25;43.50;;;;;10.76;59.07;99498.31;5017623;28;46344;-69
2022/03/31 02:30:01;;;;;;;;;51.75;42.00;;;;;10.82;58.88;99500.31;5017713;28;45415;-68
2022/03/31 02:32:27;;;;;;;;;52.50;41.25;;;;;10.81;58.32;99504.78;5018023;28;45344;-69
2022/03/31 02:34:53;;;;;;;;;52.50;42.00;;;;;10.76;58.75;99503.63;5017967;28;45354;-69
2022/03/31 02:37:19;;;;;;;;;54.00;42.50;;;;;10.65;59.21;99492.41;5012635;28;47718;-69
2022/03/31 02:39:44;;;;;;;;;53.75;43.50;;;;;10.66;59.61;99503.88;5016080;28;45460;-69
2022/03/31 02:42:09;;;;;;;;;55.50;45.00;;;;;10.52;59.36;99492.16;5017916;28;45438;-68
2022/03/31 02:44:35;;;;;;;;;54.00;41.50;;;;;10.19;59.49;99448.09;5017629;28;45405;-68
2022/03/31 02:47:00;;;;;;;;;50.50;42.25;;;;;10.34;60.17;99489.75;5007312;28;47766;-69
2022/03/31 02:49:25;;;;;;;;;54.50;42.75;;;;;9.98;60.43;99436.25;5018047;28;45551;-69
2022/03/31 02:51:51;;;;;;;;;55.25;45.25;;;;;10.36;60.34;99498.34;5017561;28;45313;-68
2022/03/31 02:57:00;;;;;;;;;51.50;44.00;;;;;10.32;60.71;99497.06;5009837;28;45894;-68
2022/03/31 02:59:26;;;;;;;;;63.50;49.00;;;;;10.30;60.70;99509.69;5017281;28;45532;-69
2022/03/31 03:01:51;;;;;;;;;62.00;47.25;;;;;10.25;60.70;99503.25;5017347;28;45213;-69
2022/03/31 03:04:17;;;;;;;;;58.75;46.00;;;;;10.20;60.84;99503.69;5017855;28;45420;-69
2022/03/31 03:06:42;;;;;;;;;58.25;46.00;;;;;10.17;60.77;99484.63;5017163;28;46039;-69
2022/03/31 03:09:08;;;;;;;;;54.25;46.25;;;;;9.69;61.03;99406.84;5017181;28;45474;-70
2022/03/31 03:11:33;;;;;;;;;61.25;48.00;;;;;9.98;60.99;99464.63;5016965;28;45795;-69
2022/03/31 03:13:59;;;;;;;;;56.25;45.75;;;;;9.75;61.43;99424.72;5017244;28;45387;-69
2022/03/31 03:16:25;;;;;;;;;59.25;47.25;;;;;10.11;61.01;99483.50;5016776;28;45403;-68
2022/03/31 03:18:52;;;;;;;;;64.25;46.00;;;;;10.11;61.16;99483.50;5016912;28;45693;-69
2022/03/31 03:21:19;;;;;;;;;44.25;38.50;;;;;10.09;60.94;99476.72;5017413;28;45307;-68
2022/03/31 03:23:45;;;;;;;;;51.50;44.00;;;;;10.13;61.09;99475.34;5015485;28;45480;-71
2022/03/31 03:26:11;;;;;;;;;53.50;45.00;;;;;10.10;60.80;99473.06;5016683;28;46038;-70
2022/03/31 03:28:37;;;;;;;;;60.25;47.00;;;;;10.12;60.93;99471.88;5016877;28;45451;-69
2022/03/31 03:31:04;;;;;;;;;61.00;48.25;;;;;9.99;60.84;99437.91;5016595;28;45392;-67
2022/03/31 03:33:31;;;;;;;;;60.50;47.75;;;;;10.06;60.85;99430.91;5017249;28;45538;-68
2022/03/31 03:35:56;;;;;;;;;54.25;42.50;;;;;10.14;60.92;99466.38;5016298;28;45502;-68
2022/03/31 03:38:21;;;;;;;;;58.50;45.50;;;;;10.19;60.58;99458.72;5016860;28;45396;-68
2022/03/31 03:40:47;;;;;;;;;56.75;45.25;;;;;10.15;60.55;99455.59;5016994;28;45395;-69
2022/03/31 03:43:13;;;;;;;;;59.50;47.25;;;;;10.21;60.61;99462.91;5016858;28;45509;-69
2022/03/31 03:45:39;;;;;;;;;60.00;47.00;;;;;10.04;60.59;99435.56;5015040;28;46317;-69
2022/03/31 03:48:06;;;;;;;;;58.25;46.00;;;;;10.25;60.48;99463.41;5016767;28;45622;-69
2022/03/31 03:50:33;;;;;;;;;60.00;46.25;;;;;10.09;60.63;99466.09;5007137;28;45483;-69
2022/03/31 03:52:59;;;;;;;;;62.50;48.50;;;;;9.93;60.71;99459.00;5015594;28;45278;-71
2022/03/31 03:55:25;;;;;;;;;61.25;48.50;;;;;10.03;60.91;99471.09;5016715;28;45898;-70
2022/03/31 03:57:50;;;;;;;;;57.25;45.75;;;;;9.90;60.62;99438.94;5014590;28;45537;-69
2022/03/31 04:00:17;;;;;;;;;60.50;47.25;;;;;9.98;60.53;99446.84;5013326;28;45317;-69
2022/03/31 04:02:42;;;;;;;;;64.50;47.75;;;;;10.06;60.10;99468.09;5016814;28;45497;-69
2022/03/31 04:05:08;;;;;;;;;57.25;44.25;;;;;9.97;60.02;99473.59;5016235;28;45535;-70
2022/03/31 04:07:34;;;;;;;;;59.50;47.75;;;;;9.89;60.02;99458.53;5015977;28;45348;-69
2022/03/31 04:09:59;;;;;;;;;59.25;45.50;;;;;9.96;59.97;99478.06;5016675;28;45379;-69
2022/03/31 04:12:24;;;;;;;;;57.25;44.75;;;;;9.68;60.01;99423.75;5016621;28;45481;-69
2022/03/31 04:14:50;;;;;;;;;56.25;46.00;;;;;10.09;59.33;99474.06;5017789;28;45319;-69
2022/03/31 04:17:16;;;;;;;;;57.25;43.25;;;;;10.11;59.18;99466.75;5019602;28;45343;-70
2022/03/31 04:19:43;;;;;;;;;44.00;38.50;;;;;10.10;58.82;99475.72;5020053;28;45269;-69
2022/03/31 04:22:11;;;;;;;;;52.25;41.50;;;;;9.97;58.46;99450.50;5020381;28;45279;-71
2022/03/31 04:24:36;;;;;;;;;56.50;44.75;;;;;9.96;58.53;99480.72;5018077;28;46806;-70
2022/03/31 04:27:02;;;;;;;;;53.25;42.75;;;;;9.83;59.08;99458.38;5019752;28;45395;-68
2022/03/31 04:29:30;;;;;;;;;55.00;43.50;;;;;9.58;58.74;99417.78;5019161;28;45439;-70
2022/03/31 04:31:56;;;;;;;;;56.75;44.75;;;;;9.95;58.49;99476.41;5019728;28;45573;-69
2022/03/31 04:34:25;;;;;;;;;53.25;44.50;;;;;9.97;58.62;99471.75;5019166;28;46023;-68
2022/03/31 04:36:50;;;;;;;;;56.25;44.50;;;;;9.96;58.69;99475.41;5018282;28;45725;-69
2022/03/31 04:39:16;;;;;;;;;58.25;44.00;;;;;10.00;58.51;99482.03;5018060;28;45321;-69
2022/03/31 04:41:43;;;;;;;;;48.25;40.25;;;;;9.98;57.96;99468.09;5019717;28;45432;-71
2022/03/31 04:44:09;;;;;;;;;54.25;41.75;;;;;9.89;58.04;99466.50;5019405;28;45455;-70
2022/03/31 04:46:35;;;;;;;;;54.00;42.75;;;;;10.01;57.98;99482.84;5019282;28;45454;-69
2022/03/31 04:49:01;;;;;;;;;61.00;45.00;;;;;9.48;58.14;99390.66;5019740;28;45451;-72
2022/03/31 04:51:27;;;;;;;;;54.00;43.00;;;;;9.98;57.83;99484.03;5019720;28;45434;-70
2022/03/31 04:53:52;;;;;;;;;53.75;43.25;;;;;9.96;58.34;99486.03;5018757;28;46252;-69
2022/03/31 04:56:18;;;;;;;;;55.75;44.00;;;;;9.89;58.44;99455.88;5017718;28;45409;-72
2022/03/31 04:58:44;;;;;;;;;54.25;42.50;;;;;9.39;57.86;99377.38;5017960;28;45310;-70
2022/03/31 05:01:10;;;;;;;;;57.00;43.75;;;;;9.84;58.25;99463.53;5014825;28;45568;-69
2022/03/31 05:03:41;;;;;;;;;59.50;44.25;;;;;9.76;58.13;99450.25;5031521;28;46963;-69
2022/03/31 05:06:07;;;;;;;;;52.00;42.25;;;;;9.76;58.21;99443.13;5019492;28;45187;-70
2022/03/31 05:08:33;;;;;;;;;58.50;45.25;;;;;9.95;58.12;99471.09;5018700;28;45435;-73
2022/03/31 05:10:59;;;;;;;;;58.00;47.50;;;;;9.78;57.84;99450.91;5017727;28;45579;-70
2022/03/31 05:13:24;;;;;;;;;56.00;44.25;;;;;9.87;58.20;99475.63;5018484;28;45377;-69
2022/03/31 05:15:51;;;;;;;;;58.75;46.75;;;;;9.93;57.85;99475.75;5018587;28;45388;-71
2022/03/31 05:18:17;;;;;;;;;59.00;45.00;;;;;9.90;58.23;99469.97;5017569;28;45479;-71
2022/03/31 05:20:43;;;;;;;;;54.75;46.00;;;;;9.92;58.16;99484.72;5019148;28;45396;-69
2022/03/31 05:23:12;;;;;;;;;55.00;43.25;;;;;9.83;57.78;99480.44;5018968;28;46282;-69
2022/03/31 05:25:38;;;;;;;;;60.00;46.75;;;;;9.86;58.04;99481.94;5015754;28;45513;-71
2022/03/31 05:28:04;;;;;;;;;59.25;45.75;;;;;9.79;58.06;99479.09;5010711;28;45367;-70
2022/03/31 05:30:30;;;;;;;;;60.50;47.00;;;;;9.81;57.68;99479.78;5018538;28;45590;-70
2022/03/31 05:32:59;;;;;;;;;50.25;40.50;;;;;9.56;58.60;99476.34;5015715;28;47599;-71
2022/03/31 05:35:26;;;;;;;;;57.75;44.50;;;;;9.47;58.82;99482.66;5017852;28;45277;-70
2022/03/31 05:37:51;;;;;;;;;62.00;48.25;;;;;9.53;59.04;99491.78;5015538;28;45282;-71
2022/03/31 05:40:17;;;;;;;;;61.75;46.50;;;;;9.46;59.25;99481.00;5017444;28;45677;-70
2022/03/31 05:42:44;;;;;;;;;57.75;48.00;;;;;9.61;59.31;99494.41;5024448;28;48967;-73
2022/03/31 05:45:12;;;;;;;;;55.75;45.75;;;;;9.28;59.17;99433.44;5017578;28;45436;-70
2022/03/31 05:47:39;;;;;;;;;60.00;47.50;;;;;9.72;58.98;99508.16;5022322;28;45484;-71
2022/03/31 05:50:05;;;;;;;;;62.25;45.50;;;;;9.59;59.56;99504.34;5018191;28;45504;-69
2022/03/31 05:52:30;;;;;;;;;62.00;47.25;;;;;8.86;59.77;99379.81;5017764;28;45726;-71
2022/03/31 05:54:56;;;;;;;;;63.75;48.50;;;;;9.56;60.11;99494.91;5007667;28;45474;-68
2022/03/31 05:57:21;;;;;;;;;67.25;51.25;;;;;9.51;60.54;99512.34;5017654;28;45316;-69
2022/03/31 05:59:47;;;;;;;;;65.50;49.75;;;;;9.48;61.04;99504.72;5017970;28;45569;-75
2022/03/31 06:02:12;;;;;;;;;63.75;52.25;;;;;9.55;60.71;99508.34;5017594;28;45653;-76
2022/03/31 06:04:39;;;;;;;;;67.75;53.00;;;;;9.68;60.48;99509.50;5017503;28;45247;-69
2022/03/31 06:07:05;;;;;;;;;70.50;53.00;;;;;9.67;60.50;99517.63;5017608;28;45510;-69
2022/03/31 06:09:31;;;;;;;;;67.75;53.25;;;;;9.46;61.28;99494.28;5017713;28;45604;-70
2022/03/31 06:11:56;;;;;;;;;71.50;55.00;;;;;9.29;60.55;99440.41;5015440;28;47198;-70
2022/03/31 06:14:22;;;;;;;;;66.75;53.00;;;;;9.79;60.79;99526.88;5007947;28;45482;-70
2022/03/31 06:16:49;;;;;;;;;66.25;50.25;;;;;9.73;60.21;99490.41;5017594;28;45316;-67
2022/03/31 06:19:15;;;;;;;;;68.50;52.25;;;;;9.87;60.95;99507.47;5017640;28;45447;-68
2022/03/31 06:21:40;;;;;;;;;72.00;54.25;;;;;9.76;60.40;99512.13;5017058;28;45428;-68
2022/03/31 06:24:06;;;;;;;;;65.50;49.00;;;;;9.66;61.06;99527.41;5017218;28;45438;-70
2022/03/31 06:26:34;;;;;;;;;73.75;58.75;;;;;9.14;61.42;99479.19;5017458;28;45396;-66
2022/03/31 06:29:00;;;;;;;;;63.75;47.75;;;;;9.29;62.36;99546.50;5016624;28;45490;-66
2022/03/31 06:31:27;;;;;;;;;51.75;35.25;;;;;9.19;62.79;99537.84;5015639;28;45709;-70
2022/03/31 06:33:52;;;;;;;;;72.50;55.00;;;;;9.25;62.04;99534.56;5004336;28;45912;-67
2022/03/31 06:36:18;;;;;;;;;70.00;52.75;;;;;9.15;62.08;99513.50;5016119;28;45499;-67
2022/03/31 06:38:43;;;;;;;;;69.00;54.00;;;;;9.29;62.90;99551.81;5017404;28;45627;-69
2022/03/31 06:41:14;;;;;;;;;69.00;55.25;;;;;9.42;61.80;99541.53;5016189;28;45667;-69
2022/03/31 06:43:43;;;;;;;;;75.75;55.75;;;;;9.39;62.09;99551.63;5016614;28;45758;-70
2022/03/31 06:46:10;;;;;;;;;70.75;56.00;;;;;9.48;61.81;99555.13;5016690;28;45501;-70
2022/03/31 06:48:36;;;;;;;;;70.00;54.00;;;;;9.30;61.77;99531.41;5017097;28;45536;-70
2022/03/31 06:51:03;;;;;;;;;75.50;58.75;;;;;9.23;62.04;99541.84;5014872;28;48390;-70
2022/03/31 06:53:29;;;;;;;;;70.75;55.00;;;;;8.96;62.93;99540.31;5008613;28;45245;-68
2022/03/31 06:55:55;;;;;;;;;71.50;54.00;;;;;9.07;62.80;99547.13;5014487;28;45687;-70
2022/03/31 06:58:29;;;;;;;;;70.25;54.25;;;;;8.91;62.86;99525.91;5016040;28;45411;-68
2022/03/31 07:00:59;;;;;;;;;65.50;50.75;;;;;9.00;62.85;99528.38;5012838;28;46169;-69
2022/03/31 07:03:27;;;;;;;;;69.75;54.00;;;;;9.21;62.09;99533.25;5013516;28;46018;-70
2022/03/31 07:06:30;;;;;;;;;69.00;54.50;;;;;9.42;62.28;99522.97;5008131;28;45708;-71
2022/03/31 07:08:55;;;;;;;;;71.50;55.00;;;;;9.54;61.48;99525.25;5006055;28;45713;-69
2022/03/31 07:11:23;;;;;;;;;70.25;55.00;;;;;9.80;60.66;99528.53;5010613;28;46855;-72
2022/03/31 07:13:52;;;;;;;;;64.50;48.50;;;;;9.81;60.15;99513.44;5013114;28;45607;-72
2022/03/31 07:16:18;;;;;;;;;64.75;52.50;;;;;9.84;59.56;99527.22;5017692;28;45563;-72
2022/03/31 07:18:44;;;;;;;;;69.75;52.25;;;;;9.74;59.93;99522.09;5014386;28;45362;-72
2022/03/31 07:21:09;;;;;;;;;59.25;46.25;;;;;9.76;59.63;99527.22;5015597;28;46290;-71
2022/03/31 07:23:35;;;;;;;;;60.75;48.50;;;;;9.84;59.53;99513.97;5008274;28;45441;-72
2022/03/31 07:26:05;;;;;;;;;58.50;44.50;;;;;9.83;58.98;99491.06;5013018;28;45496;-74
2022/03/31 07:28:31;;;;;;;;;63.25;49.00;;;;;10.02;58.74;99500.47;5011469;28;45616;-70
2022/03/31 07:30:56;;;;;;;;;70.00;53.75;;;;;10.01;58.76;99510.28;5014629;28;46266;-71
2022/03/31 07:33:22;;;;;;;;;63.75;50.25;;;;;9.88;59.28;99515.28;5014747;28;45575;-71
2022/03/31 07:35:48;;;;;;;;;61.00;47.75;;;;;9.97;59.43;99530.16;5016131;28;45566;-71
2022/03/31 07:38:17;;;;;;;;;60.00;46.50;;;;;9.67;59.14;99478.66;5011207;28;45610;-76
2022/03/31 07:40:43;;;;;;;;;66.50;51.25;;;;;9.78;59.67;99525.22;5013607;28;48270;-72
2022/03/31 07:43:09;;;;;;;;;56.00;45.25;;;;;9.60;60.34;99516.63;5011074;28;45320;-71
2022/03/31 07:45:36;;;;;;;;;60.75;48.50;;;;;9.58;60.37;99492.09;5013533;28;45523;-72
2022/03/31 07:48:03;;;;;;;;;59.25;47.00;;;;;9.61;59.74;99467.88;5013507;28;45443;-71
2022/03/31 07:50:29;;;;;;;;;58.25;47.50;;;;;9.85;60.03;99526.22;5013411;28;48762;-71
2022/03/31 07:52:54;;;;;;;;;59.50;48.25;;;;;9.98;59.95;99539.78;5015645;28;45475;-70
2022/03/31 07:55:20;;;;;;;;;63.25;48.75;;;;;9.97;60.12;99539.97;5013758;28;45650;-71
2022/03/31 07:57:46;;;;;;;;;59.50;48.00;;;;;9.82;60.18;99502.69;5010049;28;45672;-71
2022/03/31 08:00:13;;;;;;;;;60.75;48.50;;;;;9.94;60.50;99533.16;5010527;28;45796;-74
2022/03/31 08:02:43;;;;;;;;;66.25;51.25;;;;;9.40;61.04;99445.34;5013868;28;46194;-73
2022/03/31 08:05:10;;;;;;;;;65.50;50.75;;;;;9.95;61.21;99537.47;5019415;28;45360;-70
2022/03/31 08:07:36;;;;;;;;;68.00;52.75;;;;;9.90;61.79;99553.09;5015259;28;45490;-71
2022/03/31 08:10:03;;;;;;;;;64.75;50.25;;;;;9.82;62.52;99546.97;5015660;28;45662;-72
2022/03/31 08:12:28;;;;;;;;;67.50;53.75;;;;;9.61;62.97;99539.50;5013708;28;45566;-71
2022/03/31 08:14:54;;;;;;;;;67.00;54.00;;;;;9.50;63.56;99523.94;5015039;28;45189;-70
2022/03/31 08:17:38;;;;;;;;;65.25;52.25;;;;;9.44;63.64;99513.00;5015141;28;45376;-70
2022/03/31 08:20:06;;;;;;;;;65.75;52.25;;;;;9.59;64.50;99547.63;4999560;28;47374;-72
2022/03/31 08:22:32;;;;;;;;;62.25;48.75;;;;;9.81;65.24;99582.44;5014650;28;45357;-73
2022/03/31 08:24:57;;;;;;;;;43.00;34.25;;;;;9.78;64.87;99573.00;5015221;28;46699;-68
2022/03/31 08:27:47;;;;;;;;;40.75;35.50;;;;;9.41;63.78;99545.19;5015362;28;45474;-69
2022/03/31 08:30:19;;;;;;;;;34.75;31.75;;;;;9.39;64.45;99602.84;5010152;28;45760;-68
2022/03/31 08:32:46;;;;;;;;;37.50;31.50;;;;;9.17;62.92;99581.44;5014603;28;45526;-69
2022/03/31 08:35:13;;;;;;;;;28.50;27.25;;;;;9.03;63.73;99601.47;5015221;28;45418;-69
2022/03/31 08:37:39;;;;;;;;;31.33;29.33;;;;;8.58;63.25;99589.38;5014385;28;45403;-68
2022/03/31 08:40:11;;;;;;;;;34.00;27.67;;;;;8.42;64.39;99610.53;5014545;28;45511;-70
2022/03/31 08:42:37;;;;;;;;;21.00;21.00;;;;;8.29;64.55;99610.09;5010809;28;45468;-68
2022/03/31 08:45:06;;;;;;;;;28.33;25.00;;;;;8.19;63.99;99603.06;5015682;28;45551;-68
2022/03/31 08:47:32;;;;;;;;;25.00;23.00;;;;;8.15;64.29;99598.25;5014963;28;45424;-73
2022/03/31 08:50:01;;;;;;;;;18.67;17.67;;;;;7.90;62.89;99557.56;5015141;28;45703;-68
2022/03/31 08:52:26;;;;;;;;;23.00;20.00;;;;;8.33;62.33;99629.97;5014643;28;45512;-68
2022/03/31 08:54:52;;;;;;;;;15.00;14.33;;;;;8.18;61.99;99614.63;5004827;28;45512;-68
2022/03/31 08:57:20;;;;;;;;;12.00;12.00;;;;;8.21;60.36;99656.72;5014553;28;45269;-68
2022/03/31 08:59:46;;;;;;;;;14.33;13.00;;;;;7.94;60.91;99648.88;5014955;28;45488;-68
2022/03/31 09:02:22;;;;;;;;;12.67;12.67;;;;;7.87;62.51;99658.44;5018081;28;45328;-68
2022/03/31 09:05:02;;;;;;;;;15.00;13.00;;;;;7.85;62.34;99636.59;5018084;28;45532;-67
2022/03/31 09:07:27;;;;;;;;;14.00;12.33;;;;;8.09;61.72;99663.25;5018454;28;45353;-67
2022/03/31 09:10:25;;;;;;;;;16.00;15.00;;;;;8.14;61.64;99679.47;5017853;28;46069;-67
2022/03/31 09:12:53;;;;;;;;;13.33;11.33;;;;;7.92;61.44;99661.44;5014345;28;45393;-70
2022/03/31 09:15:18;;;;;;;;;10.67;10.67;;;;;7.99;61.06;99688.13;5012680;28;45527;-67
2022/03/31 09:17:43;;;;;;;;;10.67;10.67;;;;;7.91;60.77;99692.38;5015772;28;45593;-70
2022/03/31 09:20:09;;;;;;;;;8.67;8.00;;;;;7.83;60.66;99697.59;5017560;28;46609;-68
2022/03/31 09:22:49;;;;;;;;;11.00;9.33;;;;;7.70;60.49;99709.53;5016651;28;45508;-67
2022/03/31 09:25:28;;;;;;;;;7.67;7.67;;;;;7.74;61.63;99705.59;5007693;28;45507;-68
2022/03/31 09:28:19;;;;;;;;;13.67;13.33;;;;;7.56;62.25;99703.78;5015605;28;45420;-70
2022/03/31 09:30:56;;;;;;;;;13.00;13.00;;;;;7.62;61.87;99702.38;5017198;28;45376;-70
2022/03/31 09:33:34;;;;;;;;;16.00;14.00;;;;;7.66;62.71;99719.59;5012436;28;45493;-68
2022/03/31 09:36:14;;;;;;;;;11.33;11.33;;;;;7.65;62.45;99720.59;5017653;28;45413;-69
2022/03/31 09:38:43;;;;;;;;;11.33;11.33;;;;;7.39;62.93;99707.22;5018675;28;45229;-68
2022/03/31 09:41:30;;;;;;;;;18.67;13.33;;;;;7.10;63.50;99664.28;5014859;28;47094;-69
2022/03/31 09:44:00;;;;;;;;;12.67;11.33;;;;;7.61;61.36;99733.28;5012955;28;45442;-68
2022/03/31 09:46:29;;;;;;;;;4.33;3.67;;;;;7.45;61.27;99711.94;5010523;28;45379;-67
2022/03/31 09:49:25;;;;;;;;;13.33;12.67;;;;;7.53;62.48;99741.13;5013299;28;45375;-71
2022/03/31 09:51:57;;;;;;;;;11.00;11.00;;;;;7.51;61.47;99743.09;5012892;28;46057;-68
2022/03/31 09:54:29;;;;;;;;;12.67;10.67;;;;;7.34;61.90;99728.00;5015882;28;45626;-67
2022/03/31 09:56:56;;;;;;;;;11.00;11.00;;;;;7.38;62.30;99734.66;5015833;28;45591;-68
2022/03/31 09:59:54;;;;;;;;;14.33;11.00;;;;;6.98;62.51;99656.56;5015510;28;46091;-70
2022/03/31 10:02:21;;;;;;;;;10.67;9.67;;;;;7.21;62.28;99682.59;5014816;28;46450;-69
2022/03/31 10:05:02;;;;;;;;;10.00;10.00;;;;;7.42;62.76;99719.34;5015136;28;45358;-70
2022/03/31 10:08:10;;;;;;;;;;;;;;;;;;;;;
2022/03/31 10:11:09;;;;;;;;;10.67;9.33;;;;;6.70;62.74;99653.09;5015390;28;64374;-68
2022/03/31 10:13:57;;;;;;;;;9.00;9.00;;;;;6.89;63.06;99651.34;5013289;28;45550;-68
2022/03/31 10:16:44;;;;;;;;;11.67;10.67;;;;;7.39;61.98;99716.97;5016330;28;45631;-67
2022/03/31 10:19:10;;;;;;;;;11.00;10.00;;;;;7.63;62.22;99751.66;5016350;28;45379;-68
2022/03/31 10:21:44;;;;;;;;;11.33;11.33;;;;;7.53;61.40;99756.97;5016711;28;45470;-69
2022/03/31 10:27:01;;;;;;;;;13.00;11.33;;;;;7.44;61.62;99731.44;5018392;28;45466;-70
2022/03/31 10:29:38;;;;;;;;;17.33;13.67;;;;;7.53;62.22;99756.97;5016099;28;45566;-70
2022/03/31 10:32:14;;;;;;;;;14.00;11.33;;;;;7.39;62.13;99733.69;5015354;28;45396;-68
2022/03/31 10:34:44;;;;;;;;;10.00;8.67;;;;;7.61;61.49;99764.19;5014461;28;45523;-73
2022/03/31 10:37:11;;;;;;;;;8.00;7.00;;;;;7.57;61.64;99753.06;5011678;28;45578;-74
2022/03/31 10:39:36;;;;;;;;;7.00;7.00;;;;;7.47;61.69;99719.72;5013189;28;45413;-68
2022/03/31 10:42:05;;;;;;;;;11.00;11.00;;;;;7.53;61.59;99746.41;5014150;28;45197;-69
2022/03/31 10:44:31;;;;;;;;;8.67;6.00;;;;;6.95;62.32;99672.72;5012790;28;46875;-69
2022/03/31 10:47:05;;;;;;;;;6.00;6.00;;;;;7.67;62.00;99747.72;5014395;28;45360;-69
2022/03/31 10:49:32;;;;;;;;;6.33;6.33;;;;;7.84;60.57;99735.47;5009982;28;45352;-67
2022/03/31 10:51:59;;;;;;;;;7.67;6.67;;;;;7.76;61.62;99706.28;5014480;28;45296;-69
2022/03/31 10:54:33;;;;;;;;;6.00;6.00;;;;;8.03;60.29;99726.56;5014619;28;47132;-68
2022/03/31 10:57:12;;;;;;;;;6.00;4.67;;;;;7.84;60.32;99674.63;5016096;28;45345;-68
2022/03/31 10:59:39;;;;;;;;;5.33;5.33;;;;;7.96;59.29;99726.31;5011792;28;45370;-69
2022/03/31 11:02:28;;;;;;;;;4.00;4.00;;;;;7.29;60.19;99648.31;5012737;28;45543;-70
2022/03/31 11:04:58;;;;;;;;;3.67;3.00;;;;;7.28;60.79;99652.78;5010798;28;46053;-68
2022/03/31 11:07:29;;;;;;;;;6.00;5.67;;;;;7.30;60.81;99634.13;5013888;28;45553;-69
2022/03/31 11:10:27;;;;;;;;;6.00;5.00;;;;;8.09;59.85;99741.81;5016324;28;45480;-69
2022/03/31 11:12:53;;;;;;;;;5.00;5.00;;;;;8.08;59.69;99740.16;5016161;28;45463;-70
2022/03/31 11:15:18;;;;;;;;;4.33;4.33;;;;;7.60;59.23;99661.97;5015806;28;46828;-71
2022/03/31 11:17:47;;;;;;;;;8.67;5.33;;;;;7.67;58.52;99689.50;5015474;28;45454;-67
2022/03/31 11:20:19;;;;;;;;;4.33;4.33;;;;;7.69;58.88;99751.03;5016087;28;45558;-68
2022/03/31 11:22:47;;;;;;;;;3.00;3.00;;;;;7.47;58.57;99682.72;5015897;28;45491;-68
2022/03/31 11:25:13;;;;;;;;;4.33;4.33;;;;;7.63;59.24;99747.19;5012413;28;46626;-68
2022/03/31 11:27:46;;;;;;;;;7.00;6.00;;;;;7.71;60.08;99753.53;5016196;28;45509;-70
2022/03/31 11:30:20;;;;;;;;;6.33;6.33;;;;;7.37;59.40;99709.19;5014862;28;45546;-68
2022/03/31 11:32:56;;;;;;;;;4.67;4.67;;;;;7.39;59.31;99723.09;5012483;28;45526;-68
2022/03/31 11:35:25;;;;;;;;;1.00;1.00;;;;;7.45;59.62;99722.53;5016662;28;46329;-70